Time;durP1;ratioP1;P1;durP2;ratioP2;P2;SDS_P1;SDS_P2;PMS_P1;PMS_P2;Temp;Humidity;BMP_temperature;BMP_pressure;BME280_temperature;BME280_humidity;BME280_pressure;Samples;Min_cycle;Max_cycle;Signal;HPM_P1;HPM_P2
2024/04/08 00:01:19;;;;;;;10.32;2.67;;;14.90;99.90;;;13.96;89.43;100888.31;5314572;26;20003;-84
2024/04/08 00:03:45;;;;;;;8.35;2.60;;;14.90;99.90;;;13.94;89.05;100891.03;5349060;26;20380;-84
2024/04/08 00:06:11;;;;;;;10.02;2.10;;;14.90;99.90;;;13.92;89.36;100902.66;5396410;26;20000;-84
2024/04/08 00:08:44;;;;;;;11.13;2.75;;;14.90;99.90;;;13.90;89.64;100900.09;5367395;26;20010;-84
2024/04/08 00:11:12;;;;;;;12.13;2.65;;;14.80;99.90;;;13.89;89.75;100895.75;5337152;26;20008;-84
2024/04/08 00:13:38;;;;;;;9.15;2.38;;;14.80;99.90;;;13.89;89.83;100894.91;5334037;26;20005;-85
2024/04/08 00:16:09;;;;;;;6.32;2.70;;;;;;;13.89;89.95;100895.75;5330689;26;20015;-84
2024/04/08 00:18:35;;;;;;;8.55;2.25;;;14.80;99.90;;;13.90;89.71;100889.50;5353761;26;20000;-84
2024/04/08 00:21:06;;;;;;;11.63;2.20;;;14.80;99.90;;;13.87;89.67;100894.16;5355572;26;20474;-85
2024/04/08 00:23:32;;;;;;;9.15;2.50;;;14.80;99.90;;;13.82;89.31;100891.78;5339069;26;20009;-84
2024/04/08 00:26:03;;;;;;;15.10;2.58;;;14.80;99.90;;;13.80;90.01;100888.34;5366419;26;20000;-84
2024/04/08 00:28:29;;;;;;;10.88;2.35;;;14.70;99.90;;;13.81;90.54;100886.56;5320809;26;20011;-84
2024/04/08 00:31:08;;;;;;;8.27;2.70;;;14.70;99.90;;;13.81;90.89;100890.03;5345014;26;19996;-85
2024/04/08 00:33:35;;;;;;;11.35;2.53;;;14.80;99.90;;;13.82;90.79;100886.47;5348580;26;19997;-85
2024/04/08 00:36:01;;;;;;;11.35;3.03;;;14.80;99.90;;;13.85;91.19;100881.00;5336679;26;20334;-86
2024/04/08 00:38:35;;;;;;;12.15;2.28;;;14.80;99.90;;;13.87;91.11;100884.41;5301267;26;19997;-84
2024/04/08 00:41:02;;;;;;;11.57;2.47;;;14.80;99.90;;;13.89;91.43;100877.22;5349692;26;20471;-85
2024/04/08 00:43:28;;;;;;;16.42;2.47;;;14.80;99.90;;;13.92;91.47;100876.19;5354896;26;20015;-84
2024/04/08 00:45:55;;;;;;;11.23;2.20;;;14.90;99.90;;;13.95;91.71;100883.94;5385471;26;20012;-85
2024/04/08 00:48:25;;;;;;;13.23;2.38;;;14.80;99.90;;;13.94;91.52;100876.97;5366028;26;20015;-85
2024/04/08 00:50:53;;;;;;;6.95;2.50;;;14.90;99.90;;;13.93;91.60;100873.47;5328961;26;20012;-85
2024/04/08 00:53:19;;;;;;;8.80;2.63;;;14.80;99.90;;;13.91;91.32;100864.75;5380488;26;20000;-84
2024/04/08 00:55:47;;;;;;;8.60;2.50;;;14.80;99.90;;;13.91;91.54;100854.16;5352250;26;19992;-84
2024/04/08 00:58:18;;;;;;;13.07;2.70;;;14.80;99.90;;;13.91;91.74;100853.31;5331749;26;20001;-86
2024/04/08 01:00:46;;;;;;;12.15;2.75;;;14.80;99.90;;;13.89;92.06;100852.56;5368098;26;20000;-84
2024/04/08 01:03:12;;;;;;;10.00;2.58;;;14.80;99.90;;;13.88;92.35;100853.47;5371594;26;20004;-85
2024/04/08 01:05:47;;;;;;;7.82;2.40;;;14.80;99.90;;;13.89;92.49;100861.34;5330304;26;20093;-84
2024/04/08 01:08:13;;;;;;;10.90;2.88;;;14.80;99.90;;;13.91;92.40;100870.06;5357483;26;20012;-86
2024/04/08 01:10:39;;;;;;;10.82;3.08;;;14.90;99.90;;;13.95;92.32;100873.34;5374727;26;19997;-85
2024/04/08 01:13:05;;;;;;;9.10;2.78;;;14.90;99.90;;;13.95;92.33;100870.69;5343535;26;20009;-85
2024/04/08 01:15:38;;;;;;;8.50;3.10;;;14.90;99.90;;;13.98;92.30;100883.78;5324283;26;20070;-84
2024/04/08 01:18:04;;;;;;;4.90;2.15;;;14.90;99.90;;;13.94;92.79;100891.03;5330861;26;20012;-85
2024/04/08 01:20:30;;;;;;;7.80;2.47;;;14.90;99.90;;;13.92;93.35;100895.56;5344698;26;20027;-84
2024/04/08 01:22:59;;;;;;;8.68;2.63;;;14.80;99.90;;;13.90;94.15;100896.59;5351228;26;20004;-85
2024/04/08 01:25:30;;;;;;;6.97;2.90;;;14.80;99.90;;;13.89;95.03;100910.78;5322085;26;20012;-84
2024/04/08 01:27:56;;;;;;;6.65;2.70;;;14.80;99.90;;;13.88;95.84;100911.72;5333379;26;20333;-84
2024/04/08 01:30:22;;;;;;;5.22;2.53;;;14.80;99.90;;;13.87;96.09;100925.91;5342926;26;20067;-85
2024/04/08 01:32:51;;;;;;;8.32;2.53;;;14.80;99.90;;;13.85;97.08;100933.09;5354480;26;20425;-84
2024/04/08 01:35:23;;;;;;;5.85;2.75;;;14.80;99.90;;;13.85;97.60;100935.72;5345633;26;20355;-84
2024/04/08 01:37:49;;;;;;;8.77;3.03;;;14.80;99.90;;;13.82;98.04;100946.47;5351239;26;20372;-84
2024/04/08 01:40:14;;;;;;;5.30;2.72;;;14.70;99.90;;;13.78;98.89;100971.41;5356563;26;20012;-86
2024/04/08 01:42:40;;;;;;;8.18;2.55;;;14.70;99.90;;;13.72;99.52;100976.09;5387614;26;20018;-85
2024/04/08 01:45:06;;;;;;;7.53;2.50;;;14.70;99.90;;;13.68;100.00;100963.97;5315660;26;20786;-85
2024/04/08 01:47:40;;;;;;;6.78;2.70;;;14.70;99.90;;;13.66;100.00;100967.66;5385813;26;20018;-85
2024/04/08 01:50:06;;;;;;;9.20;2.75;;;14.70;99.90;;;13.66;100.00;100965.84;5319447;26;20360;-86
2024/04/08 01:52:31;;;;;;;10.07;2.47;;;14.70;99.90;;;13.70;100.00;100945.38;5350966;26;20000;-87
2024/04/08 01:54:57;;;;;;;7.40;2.40;;;14.80;99.90;;;13.78;100.00;100945.81;5326181;26;20040;-86
2024/04/08 01:57:30;;;;;;;13.32;2.08;;;14.80;99.90;;;13.85;100.00;100939.22;5380314;26;20097;-87
2024/04/08 01:59:56;;;;;;;5.93;2.00;;;14.80;99.90;;;13.91;99.80;100941.53;5320609;26;20001;-87
2024/04/08 02:02:22;;;;;;;13.80;2.05;;;14.90;99.90;;;13.95;99.01;100936.88;5325871;26;20019;-86
2024/04/08 02:04:48;;;;;;;6.68;2.20;;;14.90;99.90;;;13.98;98.25;100931.44;5357768;26;19996;-87
2024/04/08 02:07:13;;;;;;;9.88;2.70;;;14.90;99.90;;;14.03;98.08;100937.31;5341176;26;20010;-86
2024/04/08 02:09:48;;;;;;;10.45;2.67;;;15.00;99.90;;;14.05;98.31;100940.72;5347172;26;20000;-87
2024/04/08 02:12:16;;;;;;;9.55;2.15;;;15.00;99.90;;;14.06;97.99;100947.75;5321633;26;19999;-87
2024/04/08 02:14:42;;;;;;;8.80;2.28;;;15.00;99.90;;;14.07;98.42;100949.44;5359344;26;20534;-87
2024/04/08 02:17:16;;;;;;;4.05;1.92;;;;;;;14.09;98.50;100944.06;5341382;26;20013;-87
2024/04/08 02:19:45;;;;;;;8.13;2.88;;;;;;;14.09;99.02;100939.59;5376682;26;20075;-87
2024/04/08 02:22:11;;;;;;;8.35;2.50;;;;;;;14.09;99.17;100942.25;5366077;26;20004;-87
2024/04/08 02:24:48;;;;;;;10.82;2.63;;;;;;;14.10;99.60;100945.75;5371214;26;20461;-87
2024/04/08 02:27:14;;;;;;;9.20;2.22;;;15.00;99.90;;;14.07;99.91;100922.09;5372655;26;20046;-87
2024/04/08 02:29:40;;;;;;;8.38;2.38;;;15.00;99.90;;;14.04;100.00;100907.25;5311207;26;20650;-87
2024/04/08 02:32:08;;;;;;;9.63;2.75;;;15.00;99.90;;;13.92;100.00;100887.63;5328357;26;20012;-86
2024/04/08 02:34:34;;;;;;;7.35;2.83;;;14.90;99.90;;;13.90;100.00;100897.44;5349512;26;20010;-87
2024/04/08 02:37:00;;;;;;;13.05;2.72;;;14.80;99.90;;;13.86;100.00;100903.00;5323960;26;20013;-87
2024/04/08 02:39:26;;;;;;;10.80;2.92;;;14.80;99.90;;;13.84;100.00;100904.88;5315374;26;20045;-87
2024/04/08 02:41:52;;;;;;;10.40;2.75;;;14.80;99.90;;;13.82;100.00;100907.66;5336851;26;20008;-87
2024/04/08 02:44:18;;;;;;;7.15;2.17;;;14.80;99.90;;;13.79;100.00;100912.25;5347247;26;20011;-87
2024/04/08 02:46:53;;;;;;;11.73;3.20;;;14.70;99.90;;;13.73;100.00;100921.38;5324137;26;20005;-87
2024/04/08 02:49:19;;;;;;;10.77;2.33;;;;;;;13.69;100.00;100930.44;5334555;26;19997;-87
2024/04/08 02:51:45;;;;;;;7.63;2.65;;;14.70;99.90;;;13.69;100.00;100946.31;5357632;26;20008;-87
2024/04/08 02:54:18;;;;;;;7.90;2.60;;;14.70;99.90;;;13.68;100.00;100944.63;5353713;26;20071;-87
2024/04/08 02:56:48;;;;;;;9.63;2.58;;;;;;;13.68;100.00;100936.69;5331775;26;20001;-87
2024/04/08 02:59:15;;;;;;;8.32;2.60;;;;;;;13.69;100.00;100936.59;5346037;26;20007;-87
2024/04/08 03:01:50;;;;;;;8.48;2.72;;;14.60;99.90;;;13.66;100.00;100926.16;5350889;26;20008;-87
2024/04/08 03:04:18;;;;;;;5.53;2.30;;;14.60;99.90;;;13.58;100.00;100919.59;5343193;26;20034;-88
2024/04/08 03:06:54;;;;;;;;;;;;;;;;;;;;;
2024/04/08 03:09:22;;;;;;;7.13;2.30;;;;;;;13.48;100.00;100935.16;5339856;26;20020;-88
2024/04/08 03:11:56;;;;;;;9.32;2.70;;;;;;;13.44;100.00;100934.47;5361580;26;19997;-87
2024/04/08 03:14:22;;;;;;;8.57;2.60;;;;;;;13.43;100.00;100931.88;5357430;26;20014;-88
2024/04/08 03:16:48;;;;;;;10.85;3.13;;;14.40;99.90;;;13.41;100.00;100920.53;5353270;26;20343;-87
2024/04/08 03:19:22;;;;;;;6.25;2.53;;;;;;;13.36;100.00;100919.94;5349909;26;20011;-87
2024/04/08 03:21:48;;;;;;;4.93;2.70;;;14.40;99.90;;;13.31;100.00;100923.69;5345481;26;20011;-87
2024/04/08 03:24:16;;;;;;;10.65;3.08;;;14.40;99.90;;;13.27;100.00;100931.84;5336310;26;20005;-88
2024/04/08 03:26:49;;;;;;;7.50;2.60;;;14.30;99.90;;;13.28;100.00;100937.09;5322279;26;19997;-87
2024/04/08 03:29:15;;;;;;;8.85;2.25;;;14.30;99.90;;;13.22;100.00;100934.75;5329957;26;20457;-87
2024/04/08 03:31:41;;;;;;;6.10;2.42;;;14.30;99.90;;;13.17;100.00;100942.06;5318754;26;20001;-88
2024/04/08 03:34:07;;;;;;;7.00;2.85;;;14.20;99.90;;;13.13;100.00;100935.22;5315759;26;20010;-87
2024/04/08 03:36:33;;;;;;;8.80;2.15;;;14.20;99.90;;;13.13;100.00;100935.22;5342275;26;20349;-87
2024/04/08 03:38:59;;;;;;;8.95;2.92;;;;;;;13.15;100.00;100954.50;5336308;26;20346;-87
2024/04/08 03:41:35;;;;;;;7.70;2.67;;;14.20;99.90;;;13.20;100.00;100960.41;5369287;26;20006;-88
2024/04/08 03:44:00;;;;;;;11.05;2.40;;;14.20;99.90;;;13.21;100.00;100971.84;5319489;26;19997;-87
2024/04/08 03:46:26;;;;;;;7.43;2.50;;;14.20;99.90;;;13.20;100.00;100957.78;5333051;26;20004;-88
2024/04/08 03:49:03;;;;;;;;;;;;;;;;;;;;;
2024/04/08 03:51:29;;;;;;;6.80;2.80;;;;;;;13.24;100.00;100922.31;5379309;26;19999;-88
2024/04/08 03:54:06;;;;;;;10.40;2.80;;;14.20;99.90;;;13.23;100.00;100909.16;5362775;26;20012;-88
2024/04/08 03:56:34;;;;;;;9.23;2.78;;;14.20;99.90;;;13.21;100.00;100901.28;5332984;26;20012;-88
2024/04/08 03:59:09;;;;;;;7.78;2.60;;;14.20;99.90;;;13.22;100.00;100905.66;5329871;26;20073;-88
2024/04/08 04:01:37;;;;;;;7.03;2.95;;;14.20;99.90;;;13.19;100.00;100895.25;5339168;26;20382;-88
2024/04/08 04:04:13;;;;;;;6.75;2.80;;;14.20;99.90;;;13.19;100.00;100879.38;5316239;26;19992;-87
2024/04/08 04:06:39;;;;;;;12.25;2.70;;;14.20;99.90;;;13.17;100.00;100873.31;5330908;26;19997;-88
2024/04/08 04:09:17;;;;;;;5.82;2.50;;;;;;;13.14;100.00;100878.78;5341937;26;20001;-88
2024/04/08 04:11:47;;;;;;;5.57;2.10;;;;;;;13.09;100.00;100867.63;5368554;26;20008;-88
2024/04/08 04:14:24;;;;;;;9.23;3.08;;;;;;;13.04;100.00;100861.72;5368225;26;20015;-88
2024/04/08 04:16:51;;;;;;;6.40;2.17;;;14.00;99.90;;;13.02;100.00;100868.88;5340080;26;20057;-87
2024/04/08 04:19:26;;;;;;;8.60;2.08;;;14.00;99.90;;;12.97;100.00;100876.22;5351542;26;20007;-88
2024/04/08 04:21:54;;;;;;;5.68;1.90;;;14.00;99.90;;;12.92;100.00;100872.03;5324239;26;19997;-87
2024/04/08 04:24:29;;;;;;;8.48;2.40;;;13.90;99.90;;;12.93;100.00;100863.16;5317613;26;20015;-87
2024/04/08 04:26:57;;;;;;;5.82;2.00;;;;;;;12.96;100.00;100864.78;5367766;26;20007;-88
2024/04/08 04:29:26;;;;;;;10.10;2.38;;;;;;;12.96;100.00;100854.22;5339266;26;20000;-87
2024/04/08 04:31:57;;;;;;;4.90;2.40;;;14.00;99.90;;;12.94;100.00;100829.66;5361553;26;20011;-87
2024/04/08 04:34:43;;;;;;;7.80;2.00;;;13.60;99.90;;;12.95;100.00;100836.63;5363274;26;20004;-87
2024/04/08 04:37:17;;;;;;;5.00;2.20;;;13.90;99.90;;;12.92;100.00;100836.81;5359229;26;20000;-88
2024/04/08 04:39:43;;;;;;;10.35;2.75;;;13.90;99.90;;;12.93;100.00;100836.72;5338110;26;20079;-87
2024/04/08 04:42:09;;;;;;;6.60;2.17;;;;;;;12.94;100.00;100840.25;5314141;26;20001;-87
2024/04/08 04:44:42;;;;;;;7.47;2.50;;;13.90;99.90;;;12.95;100.00;100841.09;5360413;26;20537;-88
2024/04/08 04:47:09;;;;;;;12.40;2.67;;;13.90;99.90;;;12.92;100.00;100850.03;5322610;26;20018;-88
2024/04/08 04:49:38;;;;;;;6.95;2.55;;;13.90;99.90;;;12.91;100.00;100872.97;5327859;26;19997;-88
2024/04/08 04:52:15;;;;;;;7.75;3.22;;;13.90;99.90;;;12.92;100.00;100858.81;5337335;26;20004;-87
2024/04/08 04:54:49;;;;;;;8.48;2.88;;;13.90;99.90;;;12.87;100.00;100859.97;5334153;26;20073;-88
2024/04/08 04:57:24;;;;;;;7.97;2.20;;;13.90;99.90;;;12.89;100.00;100869.56;5354673;26;20069;-88
2024/04/08 04:59:50;;;;;;;6.07;2.20;;;;;;;12.88;100.00;100851.13;5319340;26;20073;-88
2024/04/08 05:02:22;;;;;;;12.25;2.42;;;;;;;12.88;100.00;100851.13;5359856;26;20507;-87
2024/04/08 05:04:48;;;;;;;11.25;2.55;;;13.90;99.90;;;12.86;100.00;100856.50;5359695;26;20004;-88
2024/04/08 05:07:16;;;;;;;6.03;2.42;;;13.90;99.90;;;12.84;100.00;100860.16;5346429;26;20008;-88
2024/04/08 05:10:08;;;;;;;9.20;2.85;;;13.90;99.90;;;12.82;100.00;100862.88;5324046;26;20000;-88
2024/04/08 05:12:37;;;;;;;7.57;2.83;;;13.80;99.90;;;12.82;100.00;100862.88;5372193;26;20035;-89
2024/04/08 05:15:06;;;;;;;8.65;2.60;;;;;;;12.83;100.00;100866.38;5338426;26;19999;-89
2024/04/08 05:17:39;;;;;;;9.13;2.60;;;;;;;12.80;100.00;100864.75;5349441;26;20018;-87
2024/04/08 05:20:09;;;;;;;6.40;2.58;;;;;;;12.78;100.00;100861.34;5363309;26;20015;-89
2024/04/08 05:22:44;;;;;;;5.80;2.50;;;13.80;99.90;;;12.73;100.00;100871.31;5386816;26;20011;-88
2024/04/08 05:25:10;;;;;;;9.63;3.03;;;;;;;12.69;100.00;100870.59;5327632;26;19997;-88
2024/04/08 05:28:04;;;;;;;10.70;2.83;;;13.70;99.90;;;12.64;100.00;100871.81;5365529;26;20014;-88
2024/04/08 05:30:30;;;;;;;4.95;2.63;;;;;;;12.66;100.00;100883.16;5348525;26;19997;-88
2024/04/08 05:33:08;;;;;;;8.07;2.28;;;13.70;99.90;;;12.67;100.00;100905.97;5347687;26;20073;-88
2024/04/08 05:35:46;;;;;;;6.00;2.35;;;;;;;12.64;100.00;100912.28;5324355;26;20012;-89
2024/04/08 05:38:16;;;;;;;8.15;2.65;;;;;;;12.59;100.00;100909.03;5336358;26;20009;-87
2024/04/08 05:40:50;;;;;;;11.25;2.75;;;13.60;99.90;;;12.48;100.00;100909.59;5359165;26;20007;-88
2024/04/08 05:43:20;;;;;;;5.32;2.13;;;13.60;99.90;;;12.26;100.00;100912.44;5316824;26;20008;-88
2024/04/08 05:46:08;;;;;;;6.18;2.40;;;13.50;99.90;;;12.26;100.00;100920.38;5302842;26;20078;-88
2024/04/08 05:48:52;;;;;;;4.75;2.78;;;;;;;12.24;100.00;100910.81;5344481;26;21741;-88
2024/04/08 05:51:18;;;;;;;7.78;2.70;;;13.40;99.90;;;12.29;100.00;100932.59;5351551;26;20051;-88
2024/04/08 05:54:06;;;;;;;7.10;2.80;;;13.40;99.90;;;12.37;100.00;100946.22;5311289;26;20013;-88
2024/04/08 05:56:37;;;;;;;9.77;3.13;;;;;;;12.41;100.00;100929.28;5317280;26;20521;-88
2024/04/08 05:59:13;;;;;;;8.35;3.10;;;13.50;99.90;;;12.41;100.00;100939.00;5354858;26;20009;-88
2024/04/08 06:01:39;;;;;;;9.43;2.90;;;13.50;99.90;;;12.49;100.00;100956.19;5335207;26;20011;-88
2024/04/08 06:04:08;;;;;;;8.40;3.00;;;;;;;12.56;100.00;100940.03;5347565;26;20408;-89
2024/04/08 06:06:40;;;;;;;5.75;2.67;;;;;;;12.59;100.00;100924.88;5349300;26;20014;-88
2024/04/08 06:09:10;;;;;;;9.52;2.65;;;13.60;99.90;;;12.67;100.00;100938.53;5356366;26;20000;-88
2024/04/08 06:11:59;;;;;;;13.38;3.03;;;;;;;12.70;100.00;100937.53;5340972;26;20042;-89
2024/04/08 06:14:28;;;;;;;9.07;3.13;;;;;;;12.74;100.00;100946.97;5356096;26;20074;-88
2024/04/08 06:20:01;;;;;;;7.90;2.67;;;;;;;12.76;100.00;100945.13;5239249;27;20076;-88
2024/04/08 06:22:27;;;;;;;10.13;3.05;;;13.80;99.90;;;12.81;100.00;100929.03;5232643;27;20038;-88
2024/04/08 06:24:56;;;;;;;12.35;2.55;;;;;;;12.84;100.00;100929.72;5201921;27;20010;-89
2024/04/08 06:27:29;;;;;;;10.43;2.40;;;13.90;99.90;;;12.88;100.00;100941.84;5251741;27;20000;-88
2024/04/08 06:29:58;;;;;;;8.85;2.00;;;;;;;12.90;100.00;100950.53;5181696;27;20074;-89
2024/04/08 06:32:33;;;;;;;6.32;2.17;;;;;;;12.93;100.00;100955.66;5223374;27;20002;-89
2024/04/08 06:34:59;;;;;;;10.00;2.33;;;13.90;99.90;;;12.96;100.00;100948.50;5243908;27;20003;-88
2024/04/08 06:37:27;;;;;;;12.00;2.70;;;;;;;13.00;100.00;100955.31;5210789;27;20474;-88
2024/04/08 06:40:03;;;;;;;6.85;2.50;;;14.00;99.90;;;13.04;100.00;100967.44;5259034;27;20002;-89
2024/04/08 06:42:29;;;;;;;11.52;2.25;;;;;;;13.06;100.00;100973.50;5214145;27;20081;-90
2024/04/08 06:47:52;;;;;;;10.10;2.15;;;;;;;13.13;100.00;100956.38;5162737;27;20052;-88
2024/04/08 06:54:09;;;;;;;4.47;1.98;;;14.10;99.90;;;13.14;100.00;100948.38;5191565;27;20529;-89
2024/04/08 06:56:38;;;;;;;8.80;2.47;;;;;;;13.10;100.00;100943.34;5199605;27;20073;-89
2024/04/08 06:59:28;;;;;;;7.45;2.35;;;;;;;13.05;100.00;100937.44;5273046;27;20021;-88
2024/04/08 07:02:15;;;;;;;6.03;2.10;;;;;;;13.04;100.00;100923.34;5260485;27;21295;-88
2024/04/08 07:04:50;;;;;;;4.40;2.55;;;;;;;13.05;100.00;100921.59;5241637;27;20370;-90
2024/04/08 07:07:19;;;;;;;7.15;2.88;;;14.10;99.90;;;13.06;100.00;100916.19;5270644;27;20006;-88
2024/04/08 07:13:20;;;;;;;5.88;2.33;;;14.10;99.90;;;13.06;100.00;100905.63;5260261;27;20073;-89
2024/04/08 07:19:29;;;;;;;7.45;2.08;;;14.00;99.90;;;13.00;100.00;100903.34;5275500;27;20013;-89
2024/04/08 07:22:09;;;;;;;7.95;2.30;;;14.00;99.90;;;13.01;100.00;100893.63;5261742;27;20007;-88
2024/04/08 07:24:50;;;;;;;5.60;2.45;;;;;;;13.05;100.00;100879.28;5282860;26;20447;-88
2024/04/08 07:27:49;;;;;;;8.40;2.50;;;14.10;99.90;;;13.13;100.00;100864.72;5330361;26;20008;-89
2024/04/08 07:30:38;;;;;;;9.32;2.75;;;;;;;13.25;100.00;100859.69;5317372;26;19996;-88
2024/04/08 07:33:10;;;;;;;7.18;2.83;;;14.30;99.90;;;13.31;100.00;100848.81;5304563;26;19997;-88
2024/04/08 07:36:39;;;;;;;7.38;2.70;;;14.30;99.90;;;13.39;100.00;100853.66;5341855;26;20012;-88
2024/04/08 07:39:31;;;;;;;11.68;2.80;;;14.30;99.90;;;13.38;100.00;100857.25;5346631;26;19996;-88
2024/04/08 07:41:57;;;;;;;10.10;2.70;;;;;;;13.39;100.00;100843.94;5334875;26;19996;-88
2024/04/08 07:53:10;;;;;;;6.90;2.38;;;;;;;13.90;100.00;100841.00;5367163;26;19997;-89
2024/04/08 07:55:46;;;;;;;;;;;;;;;;;;;;;
2024/04/08 07:58:32;;;;;;;4.95;1.90;;;15.00;99.90;;;14.16;100.00;100844.75;5219710;27;20014;-88
2024/04/08 08:01:38;;;;;;;6.78;2.45;;;15.10;99.90;;;14.19;100.00;100849.03;5197929;27;20019;-89
2024/04/08 08:04:15;;;;;;;;;;;;;;;;;;;;;
2024/04/08 08:06:42;;;;;;;7.53;2.00;;;;;;;14.44;100.00;100841.31;5415485;21;20016;-88
2024/04/08 08:09:20;;;;;;;6.75;2.25;;;15.40;99.90;;;14.66;100.00;100832.06;5383170;26;20044;-88
2024/04/08 08:11:49;;;;;;;10.88;2.50;;;15.60;99.90;;;14.96;100.00;100831.94;5343193;26;20007;-89
2024/04/08 08:15:01;;;;;;;6.38;1.65;;;;;;;15.21;100.00;100831.25;5337852;26;19996;-88
2024/04/08 08:17:40;;;;;;;6.75;1.83;;;;;;;15.31;100.00;100821.75;5340866;26;20085;-88
2024/04/08 08:20:19;;;;;;;4.28;1.55;;;;;;;15.37;100.00;100815.16;5359327;26;19996;-89
2024/04/08 08:22:48;;;;;;;6.35;1.50;;;16.20;99.90;;;15.36;100.00;100787.78;5362708;26;20007;-89
2024/04/08 08:26:10;;;;;;;6.00;1.73;;;16.20;99.90;;;15.46;100.00;100781.88;5321841;26;20015;-88
2024/04/08 08:29:20;;;;;;;3.55;1.67;;;16.40;99.90;;;15.68;100.00;100792.78;5304957;26;20008;-88
2024/04/08 08:32:01;;;;;;;;;;;;;;;;;;;;;
2024/04/08 08:34:28;;;;;;;7.70;1.90;;;;;;;16.27;97.22;100816.25;5303492;26;20001;-89
2024/04/08 08:36:54;;;;;;;7.13;2.08;;;;;;;16.48;95.33;100810.38;5302627;26;20004;-88
2024/04/08 08:40:31;;;;;;;;;;;;;;;;;;;;;
2024/04/08 08:43:11;;;;;;;8.73;1.60;;;17.40;99.90;;;16.50;91.46;100806.69;5288261;27;19997;-88
2024/04/08 08:53:24;;;;;;;6.65;1.40;;;;;;;16.42;92.88;100826.78;5434640;26;20073;-89
2024/04/08 08:59:12;;;;;;;;;;;;;;;;;;;;;
2024/04/08 09:02:14;;;;;;;3.63;1.42;;;17.30;99.90;;;16.50;90.69;100829.72;5347282;26;20005;-89
2024/04/08 09:13:40;;;;;;;4.95;1.65;;;18.10;99.90;;;17.56;88.37;100814.19;5391531;24;20006;-88
2024/04/08 09:16:22;;;;;;;5.45;1.95;;;18.40;99.90;;;17.82;87.76;100818.41;5283287;27;20017;-88
2024/04/08 09:18:48;;;;;;;3.67;1.80;;;18.60;99.90;;;18.04;86.58;100824.78;5244097;27;19998;-89
2024/04/08 09:25:21;;;;;;;10.75;2.05;;;19.10;99.90;;;18.37;82.99;100833.78;5326034;21;20070;-89
2024/04/08 09:27:51;;;;;;;4.15;1.80;;;;;;;18.64;82.75;100836.13;5336006;26;20008;-88
2024/04/08 09:31:01;;;;;;;5.60;1.70;;;19.50;99.90;;;18.84;81.66;100826.56;5364608;26;20459;-88
2024/04/08 09:34:09;;;;;;;7.88;1.77;;;;;;;19.00;79.43;100832.38;5396746;26;20000;-88
2024/04/08 09:37:40;;;;;;;12.98;1.75;;;19.90;99.90;;;19.26;79.33;100837.41;5221914;27;20474;-89
2024/04/08 09:40:51;;;;;;;10.30;1.60;;;;;;;19.48;78.59;100839.16;5218250;27;20006;-89
2024/04/08 09:43:32;;;;;;;4.20;1.58;;;;;;;19.44;76.01;100841.25;5085162;27;20047;-89
2024/04/08 09:46:31;;;;;;;10.57;2.05;;;20.30;99.90;;;19.52;75.98;100834.44;5332160;21;20083;-88
2024/04/08 09:49:39;;;;;;;;;;;;;;;;;;;;;
2024/04/08 09:52:40;;;;;;;8.65;2.00;;;20.60;99.90;;;19.98;77.44;100827.97;5281579;27;19998;-89
2024/04/08 09:56:02;;;;;;;4.97;1.83;;;21.00;99.90;;;20.43;75.66;100828.53;5174559;27;20068;-89
2024/04/08 09:58:33;;;;;;;5.88;1.80;;;;;;;20.72;75.74;100819.81;5159760;27;19996;-89
2024/04/08 10:05:42;;;;;;;10.32;2.63;;;21.40;99.90;;;20.21;74.26;100810.78;5136138;27;20102;-88
2024/04/08 10:09:11;;;;;;;9.15;2.03;;;21.10;99.90;;;20.12;75.66;100808.06;5128587;27;20002;-88
2024/04/08 10:36:37;;;;;;;12.13;2.05;;;22.60;99.90;;;21.68;71.15;100788.00;6309156;22;20133;-88
2024/04/08 10:39:09;;;;;;;9.55;2.70;;;22.40;99.90;;;21.38;71.12;100784.47;6325583;22;20011;-88
2024/04/08 10:42:56;;;;;;;;;;;;;;;;;;;;;
2024/04/08 10:46:01;;;;;;;7.07;2.55;;;22.00;99.90;;;21.08;72.35;100772.88;6163214;21;19997;-88
2024/04/08 10:48:39;;;;;;;8.80;2.28;;;22.00;99.90;;;21.19;73.41;100760.34;6280184;22;20000;-88
2024/04/08 10:51:52;;;;;;;15.02;3.08;;;22.10;99.90;;;21.35;72.26;100760.63;6242444;22;19996;-89
2024/04/08 10:54:41;;;;;;;8.73;2.33;;;22.20;99.90;;;21.57;71.43;100764.03;6140513;23;19994;-89
2024/04/08 10:57:07;;;;;;;9.45;2.00;;;;;;;21.50;70.27;100761.91;6102359;23;20013;-88
2024/04/08 10:59:34;;;;;;;13.57;2.50;;;;;;;21.58;70.45;100771.09;6102128;23;20014;-88
2024/04/08 11:07:01;;;;;;;8.80;2.38;;;22.60;99.90;;;22.01;68.72;100775.97;6140626;23;20031;-88
2024/04/08 11:10:32;;;;;;;11.88;2.70;;;22.80;99.90;;;22.19;67.42;100780.56;6013172;23;20000;-89
2024/04/08 11:13:28;;;;;;;10.00;2.53;;;23.00;99.90;;;22.28;67.54;100769.84;5982244;23;20429;-89
2024/04/08 11:16:20;;;;;;;10.00;2.25;;;23.10;99.90;;;22.39;67.81;100770.66;5842608;24;20003;-88
2024/04/08 11:20:00;;;;;;;10.73;2.25;;;23.20;99.90;;;22.56;67.75;100766.34;5834428;24;20008;-88
2024/04/08 11:26:11;;;;;;;10.60;2.38;;;23.60;99.90;;;22.91;66.78;100784.38;5708727;25;20045;-88
2024/04/08 11:28:37;;;;;;;7.10;2.38;;;;;;;23.03;66.09;100775.16;5642254;25;20009;-88
2024/04/08 11:31:16;;;;;;;11.40;2.60;;;23.80;99.90;;;23.06;65.39;100774.00;5715052;24;20429;-87
2024/04/08 11:34:00;;;;;;;8.75;2.00;;;23.90;99.90;;;23.12;65.73;100774.25;5723279;24;20008;-85
2024/04/08 11:36:38;;;;;;;11.05;2.88;;;23.90;99.90;;;23.11;65.79;100763.66;5755902;24;20008;-86
2024/04/08 11:39:13;;;;;;;9.02;2.20;;;23.80;99.90;;;23.01;64.78;100774.47;5723304;24;20084;-85
2024/04/08 11:41:39;;;;;;;15.38;2.55;;;;;;;22.95;64.77;100775.03;5757742;24;20008;-88
2024/04/08 11:44:08;;;;;;;15.70;2.58;;;23.70;99.90;;;22.87;64.26;100781.16;5794509;24;20483;-85
2024/04/08 11:46:39;;;;;;;13.85;2.63;;;23.70;99.90;;;22.80;64.03;100771.16;5796117;24;20018;-86
2024/04/08 11:49:07;;;;;;;21.08;3.35;;;23.60;99.90;;;22.75;64.24;100773.47;5796901;24;20010;-86
2024/04/08 11:51:32;;;;;;;12.68;2.65;;;23.60;99.90;;;22.76;64.45;100761.72;5797502;24;20035;-85
2024/04/08 11:54:10;;;;;;;13.40;2.40;;;;;;;22.77;64.06;100763.44;5871496;24;20014;-86
2024/04/08 11:56:39;;;;;;;19.92;2.67;;;;;;;22.77;63.94;100768.78;6056870;23;20375;-84
2024/04/08 11:59:10;;;;;;;11.90;2.60;;;23.60;99.90;;;22.81;64.41;100775.56;6181113;22;20028;-86
2024/04/08 12:01:42;;;;;;;15.27;3.10;;;23.60;99.90;;;22.78;62.93;100767.78;6282507;22;20412;-85
2024/04/08 12:04:29;;;;;;;17.58;3.45;;;23.60;99.90;;;22.83;63.23;100779.78;6463376;21;20372;-86
2024/04/08 12:06:58;;;;;;;15.35;2.97;;;23.60;99.90;;;22.97;64.69;100770.34;6490861;22;20009;-86
2024/04/08 12:09:27;;;;;;;14.32;2.60;;;23.80;99.90;;;23.05;64.21;100772.31;6440533;22;20421;-86
2024/04/08 12:14:28;;;;;;;15.82;2.75;;;23.90;99.90;;;23.18;64.76;100771.97;6473561;22;20042;-86
2024/04/08 12:16:56;;;;;;;25.10;3.85;;;23.90;99.90;;;23.21;62.12;100779.69;6391088;22;20021;-85
2024/04/08 12:19:29;;;;;;;25.65;3.78;;;23.90;99.90;;;23.12;61.84;100770.72;6431421;22;19998;-85
2024/04/08 12:21:55;;;;;;;22.08;3.40;;;23.90;99.90;;;23.12;62.27;100755.44;6393790;22;20311;-86
2024/04/08 12:24:20;;;;;;;21.33;3.78;;;23.90;99.90;;;23.17;61.52;100767.56;6340454;22;20002;-86
2024/04/08 12:26:58;;;;;;;24.83;3.65;;;23.90;99.90;;;23.23;60.79;100766.97;6340881;22;20010;-85
2024/04/08 12:29:34;;;;;;;;;;;;;;;;;;;;;
2024/04/08 12:32:00;;;;;;;22.30;3.72;;;24.00;99.90;;;23.35;61.53;100763.06;6385062;22;20002;-85
2024/04/08 12:34:26;;;;;;;19.27;3.97;;;24.00;99.90;;;23.32;61.69;100760.66;6341019;22;20422;-86
2024/04/08 12:36:52;;;;;;;15.90;3.28;;;24.00;99.90;;;23.25;61.06;100767.66;6340320;22;20006;-85
2024/04/08 12:39:18;;;;;;;22.75;3.67;;;23.90;99.90;;;23.21;61.09;100769.78;6371994;22;20019;-84
2024/04/08 12:41:43;;;;;;;13.73;3.33;;;23.90;99.90;;;23.27;62.36;100766.50;6332972;22;19996;-86